createdAt,value
2023-03-29T00:02:19.682Z,68.59
2023-03-29T00:04:47.073Z,68.54
2023-03-29T00:07:14.296Z,67.84
2023-03-29T00:09:42.444Z,67.24
2023-03-29T00:12:11.558Z,66.44
2023-03-29T00:14:38.672Z,66.65
2023-03-29T00:17:06.334Z,66.05
2023-03-29T00:19:36.582Z,66.18
2023-03-29T00:22:06.001Z,67.65
2023-03-29T00:24:33.226Z,67.05
2023-03-29T00:27:00.950Z,68.68
2023-03-29T00:29:28.770Z,68.29
2023-03-29T00:31:56.091Z,67.91
2023-03-29T00:34:24.941Z,67.95
2023-03-29T00:36:53.065Z,69.67
2023-03-29T00:39:20.575Z,65.49
2023-03-29T00:41:49.708Z,63.48
2023-03-29T00:44:56.330Z,62.44
2023-03-29T00:47:32.835Z,62.81
2023-03-29T00:50:06.914Z,62.99
2023-03-29T00:52:36.260Z,64.16
2023-03-29T00:55:10.035Z,64.69
2023-03-29T00:57:38.854Z,64.12
2023-03-29T01:00:10.141Z,64.23
2023-03-29T01:02:40.146Z,64.96
2023-03-29T01:05:14.459Z,65.82
2023-03-29T01:07:53.685Z,65.99
2023-03-29T01:10:31.046Z,65.63
2023-03-29T01:13:09.318Z,65.82
2023-03-29T01:15:40.805Z,66.52
2023-03-29T01:18:09.132Z,67.21
2023-03-29T01:20:57.473Z,66.35
2023-03-29T01:23:58.332Z,66.50
2023-03-29T01:26:44.914Z,67.52
2023-03-29T01:29:54.157Z,68.33
2023-03-29T01:32:34.936Z,66.39
2023-03-29T01:35:10.139Z,66.22
2023-03-29T01:37:43.688Z,64.92
2023-03-29T01:40:11.193Z,64.80
2023-03-29T01:43:15.765Z,65.65
2023-03-29T01:45:51.408Z,65.53
2023-03-29T01:48:30.780Z,67.07
2023-03-29T01:51:06.974Z,67.61
2023-03-29T01:53:57.298Z,66.13
2023-03-29T01:56:28.590Z,65.21
2023-03-29T01:59:04.091Z,65.76
2023-03-29T02:01:38.391Z,68.05
2023-03-29T02:04:13.139Z,67.17
2023-03-29T02:06:41.670Z,66.32
2023-03-29T02:09:09.186Z,68.72
2023-03-29T02:11:38.951Z,65.11
2023-03-29T02:14:06.422Z,67.18
2023-03-29T02:16:37.552Z,66.16
2023-03-29T02:19:07.804Z,67.62
2023-03-29T02:21:48.240Z,66.85
2023-03-29T02:24:20.113Z,68.73
2023-03-29T02:26:48.356Z,65.71
2023-03-29T02:29:16.257Z,66.25
2023-03-29T02:31:58.616Z,65.09
2023-03-29T02:34:41.726Z,67.33
2023-03-29T02:37:15.600Z,65.38
2023-03-29T02:39:42.891Z,63.83
2023-03-29T02:42:10.922Z,65.72
2023-03-29T02:44:41.342Z,66.69
2023-03-29T02:47:21.283Z,66.68
2023-03-29T02:49:48.625Z,68.65
2023-03-29T02:52:19.119Z,67.92
2023-03-29T02:54:48.859Z,68.38
2023-03-29T02:57:16.047Z,67.26
2023-03-29T02:59:44.601Z,68.48
2023-03-29T03:02:11.829Z,69.25
2023-03-29T03:04:39.302Z,69.95
2023-03-29T03:07:06.527Z,69.76
2023-03-29T03:09:34.327Z,69.20
2023-03-29T03:12:01.846Z,67.60
2023-03-29T03:14:29.440Z,69.07
2023-03-29T03:16:59.033Z,68.48
2023-03-29T03:19:26.272Z,70.17
2023-03-29T03:21:53.420Z,71.30
2023-03-29T03:24:22.131Z,71.86
2023-03-29T03:26:50.005Z,73.66
2023-03-29T03:29:19.112Z,72.91
2023-03-29T03:31:55.629Z,73.34
2023-03-29T03:34:42.716Z,74.58
2023-03-29T03:37:11.975Z,75.53
2023-03-29T03:39:39.546Z,74.78
2023-03-29T03:42:09.014Z,75.68
2023-03-29T03:44:42.068Z,76.47
2023-03-29T03:47:23.619Z,75.63
2023-03-29T03:49:51.813Z,75.39
2023-03-29T03:52:21.188Z,75.61
2023-03-29T03:54:50.110Z,74.64
2023-03-29T03:57:37.265Z,73.82
2023-03-29T04:00:10.214Z,73.50
2023-03-29T04:02:39.987Z,74.01
2023-03-29T04:05:08.637Z,74.50
2023-03-29T04:07:38.714Z,73.91
2023-03-29T04:10:37.158Z,72.38
2023-03-29T04:13:12.820Z,70.92
2023-03-29T04:16:01.694Z,70.35
2023-03-29T04:18:29.501Z,69.53
2023-03-29T04:20:59.529Z,70.48
2023-03-29T04:23:28.818Z,71.71
2023-03-29T04:25:59.389Z,72.09
2023-03-29T04:28:58.781Z,71.54
2023-03-29T04:31:41.899Z,71.74
2023-03-29T04:34:27.699Z,71.44
2023-03-29T04:36:58.701Z,72.19
2023-03-29T04:39:32.968Z,71.12
2023-03-29T04:42:02.861Z,72.46
2023-03-29T04:44:34.947Z,72.25
2023-03-29T04:47:04.965Z,73.13
2023-03-29T04:50:08.372Z,75.52
2023-03-29T04:52:40.797Z,76.41
2023-03-29T04:55:09.238Z,76.12
2023-03-29T04:57:49.213Z,75.02
2023-03-29T05:00:26.972Z,73.83
2023-03-29T05:03:07.930Z,74.62
2023-03-29T05:05:39.426Z,76.42
2023-03-29T05:08:09.400Z,76.81
2023-03-29T05:10:59.737Z,74.82
2023-03-29T05:13:28.748Z,76.35
2023-03-29T05:15:57.103Z,100.00
2023-03-29T05:18:25.265Z,78.79
2023-03-29T05:20:54.067Z,65.96
2023-03-29T05:23:22.044Z,61.64
2023-03-29T05:26:09.720Z,57.49
2023-03-29T05:28:37.942Z,59.21
2023-03-29T05:31:05.848Z,57.75
2023-03-29T05:33:36.812Z,60.95
2023-03-29T05:36:13.435Z,48.32
2023-03-29T05:38:46.768Z,44.10
2023-03-29T05:41:15.868Z,41.47
2023-03-29T05:43:54.653Z,40.52
2023-03-29T05:46:24.789Z,39.18
2023-03-29T05:48:54.646Z,38.24
2023-03-29T05:51:27.306Z,36.08
2023-03-29T05:53:56.212Z,35.90
2023-03-29T05:56:23.454Z,43.42
2023-03-29T05:58:54.872Z,42.99
2023-03-29T06:01:24.609Z,47.13
2023-03-29T06:03:59.633Z,51.73
2023-03-29T06:06:45.425Z,54.36
2023-03-29T06:09:12.856Z,58.46
2023-03-29T06:11:46.578Z,63.27
2023-03-29T06:14:32.603Z,61.18
2023-03-29T06:17:10.801Z,61.56
2023-03-29T06:19:38.206Z,58.87
2023-03-29T06:22:05.416Z,58.89
2023-03-29T06:24:34.421Z,59.72
2023-03-29T06:27:07.767Z,61.31
2023-03-29T06:29:35.862Z,59.70
2023-03-29T06:32:03.307Z,60.73
2023-03-29T06:34:46.858Z,60.85
2023-03-29T06:37:29.955Z,59.76
2023-03-29T06:40:07.020Z,59.32
2023-03-29T06:42:45.337Z,57.76
2023-03-29T06:45:33.612Z,58.12
2023-03-29T06:48:05.026Z,58.49
2023-03-29T06:50:32.647Z,58.47
2023-03-29T06:53:16.972Z,59.11
2023-03-29T06:55:52.966Z,56.59
2023-03-29T06:58:40.858Z,56.70
2023-03-29T07:01:27.112Z,57.24
2023-03-29T07:04:04.574Z,57.80
2023-03-29T07:06:39.118Z,58.36
2023-03-29T07:09:06.636Z,55.34
2023-03-29T07:12:08.961Z,55.81
2023-03-29T07:14:36.171Z,55.77
2023-03-29T07:17:04.947Z,54.05
2023-03-29T07:19:34.233Z,53.70
2023-03-29T07:22:33.802Z,53.63
2023-03-29T07:25:01.967Z,54.80
2023-03-29T07:27:30.068Z,51.66
2023-03-29T07:29:58.073Z,51.35
2023-03-29T07:32:25.265Z,48.80
2023-03-29T07:35:12.198Z,49.70
2023-03-29T07:37:39.691Z,47.39
2023-03-29T07:40:16.630Z,45.88
2023-03-29T07:43:09.354Z,45.74
2023-03-29T07:45:37.421Z,45.48
2023-03-29T07:48:09.927Z,43.97
2023-03-29T07:50:50.700Z,44.44
2023-03-29T07:53:21.062Z,43.63
2023-03-29T07:55:49.869Z,43.73
2023-03-29T07:58:46.669Z,43.04
2023-03-29T08:01:18.898Z,43.14
2023-03-29T08:04:12.127Z,41.81
2023-03-29T08:06:58.220Z,40.22
2023-03-29T08:09:34.891Z,38.69
2023-03-29T08:12:01.982Z,39.07
2023-03-29T08:14:36.090Z,39.08
2023-03-29T08:17:26.397Z,39.84
2023-03-29T08:19:53.658Z,39.94
2023-03-29T08:22:23.643Z,38.49
2023-03-29T08:25:07.282Z,37.16
2023-03-29T08:27:39.848Z,36.91
2023-03-29T08:30:10.296Z,37.10
2023-03-29T08:32:41.663Z,36.99
2023-03-29T08:35:10.336Z,38.56
2023-03-29T08:37:43.890Z,38.64
2023-03-29T08:40:24.706Z,35.83
2023-03-29T08:42:54.435Z,36.18
2023-03-29T08:45:37.918Z,36.46
2023-03-29T08:48:22.603Z,36.24
2023-03-29T08:50:56.524Z,35.87
2023-03-29T08:53:42.373Z,36.20
2023-03-29T08:56:20.614Z,36.56
2023-03-29T08:59:17.648Z,37.56
2023-03-29T09:01:48.664Z,35.24
2023-03-29T09:04:25.306Z,35.31
2023-03-29T09:06:59.503Z,34.76
2023-03-29T09:09:34.610Z,34.13
2023-03-29T09:12:16.485Z,34.38
2023-03-29T09:15:10.678Z,34.26
2023-03-29T09:18:04.650Z,35.06
2023-03-29T09:20:44.134Z,34.79
2023-03-29T09:23:22.326Z,34.95
2023-03-29T09:26:43.174Z,33.83
2023-03-29T09:29:45.265Z,31.68
2023-03-29T09:32:20.800Z,32.76
2023-03-29T09:35:20.127Z,34.20
2023-03-29T09:37:51.288Z,32.79
2023-03-29T09:40:32.936Z,33.22
2023-03-29T09:43:18.370Z,33.51
2023-03-29T09:45:53.437Z,34.48
2023-03-29T09:48:21.840Z,34.36
2023-03-29T09:50:55.857Z,32.93
2023-03-29T09:53:24.930Z,33.45
2023-03-29T09:56:08.745Z,33.73
2023-03-29T09:58:46.993Z,33.44
2023-03-29T10:01:20.235Z,34.04
2023-03-29T10:03:53.194Z,33.28
2023-03-29T10:06:24.322Z,31.95
2023-03-29T10:09:01.304Z,32.97
2023-03-29T10:11:47.630Z,33.37
2023-03-29T10:14:41.252Z,32.11
2023-03-29T10:17:16.599Z,31.20
2023-03-29T10:19:58.398Z,31.46
2023-03-29T10:22:41.132Z,31.92
2023-03-29T10:25:17.256Z,32.34
2023-03-29T10:27:46.896Z,32.82
2023-03-29T10:30:23.906Z,32.82
2023-03-29T10:33:00.012Z,32.68
2023-03-29T10:35:33.333Z,33.33
2023-03-29T10:38:04.700Z,32.02
2023-03-29T10:40:34.120Z,31.47
2023-03-29T10:43:12.491Z,31.77
2023-03-29T10:45:40.951Z,32.99
2023-03-29T10:48:16.336Z,33.54
2023-03-29T10:50:49.238Z,32.30
2023-03-29T10:53:24.799Z,31.15
2023-03-29T10:56:23.005Z,32.80
2023-03-29T10:59:12.079Z,32.71
2023-03-29T11:01:59.006Z,29.90
2023-03-29T11:04:28.966Z,29.70
2023-03-29T11:07:19.652Z,31.30
2023-03-29T11:09:49.819Z,31.42
2023-03-29T11:12:40.306Z,32.73
2023-03-29T11:15:17.951Z,30.85
2023-03-29T11:17:50.827Z,30.44
2023-03-29T11:20:38.689Z,31.61
2023-03-29T11:23:34.357Z,32.22
2023-03-29T11:26:15.595Z,32.53
2023-03-29T11:28:56.367Z,32.14
2023-03-29T11:31:28.762Z,32.15
2023-03-29T11:34:14.381Z,32.16
2023-03-29T11:36:59.955Z,32.13
2023-03-29T11:39:38.618Z,32.13
2023-03-29T11:42:20.203Z,32.88
2023-03-29T11:44:50.778Z,32.30
2023-03-29T11:47:22.591Z,32.77
2023-03-29T11:49:57.381Z,31.21
2023-03-29T11:52:41.089Z,30.42
2023-03-29T11:55:18.046Z,30.33
2023-03-29T11:57:56.533Z,30.42
2023-03-29T12:00:38.803Z,30.19
2023-03-29T12:03:24.658Z,29.57
2023-03-29T12:05:58.571Z,30.72
2023-03-29T12:08:55.149Z,29.93
2023-03-29T12:11:22.825Z,29.85
2023-03-29T12:13:56.562Z,29.48
2023-03-29T12:16:34.322Z,32.26
2023-03-29T12:19:07.350Z,30.48
2023-03-29T12:21:36.569Z,30.89
2023-03-29T12:24:06.332Z,30.13
2023-03-29T12:26:55.346Z,30.52
2023-03-29T12:29:39.326Z,30.41
2023-03-29T12:32:21.491Z,30.21
2023-03-29T12:35:16.720Z,30.23
2023-03-29T12:38:32.856Z,31.28
2023-03-29T12:41:35.555Z,32.44
2023-03-29T12:44:23.931Z,31.41
2023-03-29T12:47:00.481Z,31.66
2023-03-29T12:49:32.559Z,31.76
2023-03-29T12:52:02.387Z,32.53
2023-03-29T12:54:33.270Z,32.25
2023-03-29T12:57:02.703Z,33.68
2023-03-29T12:59:38.844Z,32.02
2023-03-29T13:02:15.253Z,33.05
2023-03-29T13:04:42.951Z,32.98
2023-03-29T13:07:15.024Z,31.97
2023-03-29T13:10:03.520Z,30.74
2023-03-29T13:12:43.331Z,32.62
2023-03-29T13:15:19.176Z,31.79
2023-03-29T13:18:04.855Z,32.90
2023-03-29T13:20:45.929Z,31.62
2023-03-29T13:23:43.350Z,33.15
2023-03-29T13:26:34.476Z,33.56
2023-03-29T13:29:19.783Z,31.86
2023-03-29T13:32:04.463Z,32.22
2023-03-29T13:34:56.340Z,34.78
2023-03-29T13:37:40.837Z,34.40
2023-03-29T13:40:30.312Z,34.79
2023-03-29T13:43:08.953Z,35.13
2023-03-29T13:45:38.639Z,32.63
2023-03-29T13:48:23.703Z,32.07
2023-03-29T13:51:01.616Z,33.95
2023-03-29T13:53:38.228Z,34.35
2023-03-29T13:56:15.413Z,32.18
2023-03-29T13:58:49.692Z,30.43
2023-03-29T14:01:39.179Z,33.06
2023-03-29T14:04:09.826Z,30.71
2023-03-29T14:06:38.557Z,31.72
2023-03-29T14:09:08.642Z,32.81
2023-03-29T14:11:36.504Z,33.76
2023-03-29T14:14:07.051Z,33.52
2023-03-29T14:16:40.026Z,31.56
2023-03-29T14:19:24.659Z,32.58
2023-03-29T14:21:53.152Z,32.99
2023-03-29T14:24:27.229Z,33.67
2023-03-29T14:26:54.794Z,33.13
2023-03-29T14:29:24.213Z,32.43
2023-03-29T14:31:52.833Z,29.44
2023-03-29T14:34:20.236Z,30.33
2023-03-29T14:36:49.336Z,28.99
2023-03-29T14:39:20.028Z,27.64
2023-03-29T14:41:52.919Z,26.60
2023-03-29T14:44:22.525Z,25.22
2023-03-29T14:46:49.786Z,24.38
2023-03-29T14:49:19.418Z,23.70
2023-03-29T14:51:47.805Z,23.88
2023-03-29T14:54:29.733Z,23.27
2023-03-29T14:56:57.067Z,23.65
2023-03-29T14:59:37.488Z,22.69
2023-03-29T15:02:21.839Z,21.05
2023-03-29T15:04:56.466Z,21.37
2023-03-29T15:07:26.948Z,22.57
2023-03-29T15:09:56.235Z,23.13
2023-03-29T15:12:23.598Z,22.79
2023-03-29T15:14:52.424Z,22.07
2023-03-29T15:17:46.997Z,23.11
2023-03-29T15:20:29.814Z,23.27
2023-03-29T15:23:10.289Z,21.95
2023-03-29T15:25:46.128Z,20.74
2023-03-29T15:28:26.404Z,21.18
2023-03-29T15:31:07.179Z,20.25
2023-03-29T15:33:38.606Z,22.31
2023-03-29T15:36:08.298Z,22.96
2023-03-29T15:38:43.992Z,23.28
2023-03-29T15:41:13.309Z,22.64
2023-03-29T15:43:41.385Z,22.76
2023-03-29T15:46:12.005Z,22.63
2023-03-29T15:48:39.711Z,24.66
2023-03-29T15:51:07.497Z,25.61
2023-03-29T15:53:35.833Z,27.36
2023-03-29T15:56:07.271Z,28.26
2023-03-29T15:58:35.783Z,30.27
2023-03-29T16:01:23.386Z,30.84
2023-03-29T16:03:50.905Z,32.07
2023-03-29T16:06:18.373Z,33.40
2023-03-29T16:08:46.009Z,33.94
2023-03-29T16:11:13.267Z,34.47
2023-03-29T16:13:40.460Z,35.77
2023-03-29T16:16:10.740Z,35.69
2023-03-29T16:18:38.272Z,37.29
2023-03-29T16:21:06.299Z,35.93
2023-03-29T16:23:34.347Z,35.64
2023-03-29T16:26:01.665Z,35.99
2023-03-29T16:28:28.823Z,36.31
2023-03-29T16:30:56.145Z,37.05
2023-03-29T16:33:23.347Z,39.43
2023-03-29T16:35:50.600Z,39.83
2023-03-29T16:38:17.721Z,40.72
2023-03-29T16:40:45.111Z,41.64
2023-03-29T16:43:16.103Z,42.29
2023-03-29T16:45:43.320Z,41.31
2023-03-29T16:48:18.037Z,41.65
2023-03-29T16:50:49.375Z,41.66
2023-03-29T16:53:18.481Z,42.80
2023-03-29T16:55:46.758Z,43.86
2023-03-29T16:58:15.229Z,44.99
2023-03-29T17:00:44.438Z,46.60
2023-03-29T17:03:13.272Z,46.67
2023-03-29T17:05:41.691Z,46.44
2023-03-29T17:08:10.016Z,46.61
2023-03-29T17:10:40.794Z,47.35
2023-03-29T17:13:08.650Z,47.19
2023-03-29T17:15:39.354Z,48.67
2023-03-29T17:18:07.468Z,50.14
2023-03-29T17:20:34.643Z,50.21
2023-03-29T17:23:01.722Z,51.31
2023-03-29T17:25:28.819Z,50.99
2023-03-29T17:27:56.015Z,52.42
2023-03-29T17:30:23.146Z,54.27
2023-03-29T17:32:52.144Z,56.15
2023-03-29T17:35:19.552Z,55.56
2023-03-29T17:37:46.688Z,54.95
2023-03-29T17:40:14.158Z,55.95
2023-03-29T17:42:42.291Z,54.77
2023-03-29T17:45:10.903Z,53.32
2023-03-29T17:47:38.750Z,55.36
2023-03-29T17:50:07.260Z,57.24
2023-03-29T17:52:34.689Z,56.94
2023-03-29T17:55:01.972Z,56.82
2023-03-29T17:57:29.130Z,56.26
2023-03-29T17:59:56.299Z,57.36
2023-03-29T18:02:24.768Z,55.88
2023-03-29T18:04:52.033Z,57.19
2023-03-29T18:07:19.107Z,58.67
2023-03-29T18:09:46.226Z,57.71
2023-03-29T18:12:13.304Z,58.74
2023-03-29T18:14:40.632Z,59.13
2023-03-29T18:17:07.823Z,59.20
2023-03-29T18:19:35.096Z,59.82
2023-03-29T18:22:02.163Z,62.38
2023-03-29T18:24:29.466Z,62.46
2023-03-29T18:26:56.605Z,63.58
2023-03-29T18:29:24.025Z,65.71
2023-03-29T18:31:51.228Z,66.83
2023-03-29T18:34:18.317Z,65.37
2023-03-29T18:36:45.471Z,63.74
2023-03-29T18:39:13.567Z,62.68
2023-03-29T18:41:40.648Z,61.50
2023-03-29T18:44:07.910Z,64.05
2023-03-29T18:46:35.333Z,64.50
2023-03-29T18:49:03.864Z,61.96
2023-03-29T18:51:30.994Z,65.75
2023-03-29T18:53:58.205Z,67.56
2023-03-29T18:56:25.662Z,63.25
2023-03-29T18:58:53.717Z,64.17
2023-03-29T19:01:21.223Z,67.76
2023-03-29T19:03:48.698Z,68.53
2023-03-29T19:06:16.604Z,66.54
2023-03-29T19:08:43.754Z,64.58
2023-03-29T19:11:14.201Z,63.34
2023-03-29T19:13:41.470Z,62.00
2023-03-29T19:16:09.176Z,63.32
2023-03-29T19:18:36.639Z,62.25
2023-03-29T19:21:04.049Z,64.62
2023-03-29T19:23:31.378Z,67.65
2023-03-29T19:26:01.242Z,66.13
2023-03-29T19:28:29.162Z,66.56
2023-03-29T19:30:58.477Z,69.01
2023-03-29T19:33:25.642Z,70.61
2023-03-29T19:35:52.863Z,70.25
2023-03-29T19:38:21.307Z,68.22
2023-03-29T19:40:50.440Z,67.47
2023-03-29T19:43:18.336Z,69.01
2023-03-29T19:45:46.921Z,70.06
2023-03-29T19:48:21.763Z,71.14
2023-03-29T19:50:50.221Z,70.19
2023-03-29T19:53:17.455Z,70.27
2023-03-29T19:55:45.310Z,70.09
2023-03-29T19:58:13.071Z,68.68
2023-03-29T20:00:41.535Z,67.68
2023-03-29T20:03:13.862Z,68.26
2023-03-29T20:05:41.309Z,69.10
2023-03-29T20:08:08.834Z,68.59
2023-03-29T20:10:36.349Z,68.00
2023-03-29T20:13:06.074Z,68.84
2023-03-29T20:15:35.144Z,71.43
2023-03-29T20:18:02.286Z,70.08
2023-03-29T20:20:29.929Z,70.01
2023-03-29T20:23:04.558Z,70.63
2023-03-29T20:25:34.357Z,72.53
2023-03-29T20:28:01.477Z,72.28
2023-03-29T20:30:28.593Z,73.08
2023-03-29T20:32:56.047Z,73.62
2023-03-29T20:35:23.258Z,74.17
2023-03-29T20:37:50.341Z,73.36
2023-03-29T20:40:17.587Z,73.85
2023-03-29T20:42:46.206Z,74.35
2023-03-29T20:45:18.676Z,74.78
2023-03-29T20:47:57.447Z,74.64
2023-03-29T20:50:26.392Z,74.91
2023-03-29T20:52:56.589Z,74.87
2023-03-29T20:55:24.520Z,76.27
2023-03-29T20:57:57.813Z,75.60
2023-03-29T21:00:31.624Z,76.44
2023-03-29T21:02:59.046Z,76.74
2023-03-29T21:05:27.845Z,76.80
2023-03-29T21:07:55.175Z,77.08
2023-03-29T21:10:23.597Z,76.66
2023-03-29T21:12:52.182Z,76.26
2023-03-29T21:15:19.739Z,77.70
2023-03-29T21:17:47.527Z,78.10
2023-03-29T21:20:15.508Z,79.31
2023-03-29T21:22:43.117Z,76.85
2023-03-29T21:25:12.376Z,75.26
2023-03-29T21:27:39.470Z,75.57
2023-03-29T21:30:07.976Z,75.52
2023-03-29T21:32:36.407Z,75.32
2023-03-29T21:35:03.750Z,76.57
2023-03-29T21:37:31.062Z,75.22
2023-03-29T21:39:58.159Z,76.09
2023-03-29T21:42:25.507Z,76.44
2023-03-29T21:44:52.644Z,76.17
2023-03-29T21:47:19.742Z,76.07
2023-03-29T21:49:46.862Z,77.03
2023-03-29T21:52:14.024Z,76.56
2023-03-29T21:54:41.162Z,75.68
2023-03-29T21:57:08.663Z,75.46
2023-03-29T21:59:35.847Z,74.97
2023-03-29T22:02:02.993Z,75.93
2023-03-29T22:04:37.228Z,75.94
2023-03-29T22:07:06.233Z,75.63
2023-03-29T22:09:35.224Z,76.03
2023-03-29T22:12:04.772Z,75.74
2023-03-29T22:14:35.120Z,75.58
2023-03-29T22:17:07.838Z,76.15
2023-03-29T22:19:39.557Z,76.65
2023-03-29T22:22:13.211Z,76.73
2023-03-29T22:24:41.507Z,76.08
2023-03-29T22:27:08.616Z,75.49
2023-03-29T22:29:35.823Z,75.93
2023-03-29T22:32:03.101Z,76.17
2023-03-29T22:34:30.502Z,76.62
2023-03-29T22:36:57.607Z,77.67
2023-03-29T22:39:24.799Z,77.03
2023-03-29T22:41:51.891Z,77.66
2023-03-29T22:44:19.039Z,77.71
2023-03-29T22:46:46.670Z,77.49
2023-03-29T22:49:13.745Z,77.46
2023-03-29T22:51:40.816Z,77.16
2023-03-29T22:54:08.001Z,76.92
2023-03-29T22:56:35.235Z,77.55
2023-03-29T22:59:02.314Z,77.74
2023-03-29T23:01:29.442Z,77.00
2023-03-29T23:03:56.642Z,77.20
2023-03-29T23:06:23.885Z,77.99
2023-03-29T23:08:50.962Z,77.97
2023-03-29T23:11:18.028Z,78.38
2023-03-29T23:13:48.601Z,79.27
2023-03-29T23:16:16.202Z,79.61
2023-03-29T23:18:43.338Z,79.59
2023-03-29T23:21:10.526Z,79.79
2023-03-29T23:23:38.295Z,80.41
2023-03-29T23:26:08.444Z,81.35
2023-03-29T23:28:35.645Z,81.49
2023-03-29T23:31:09.304Z,80.71
2023-03-29T23:33:40.411Z,81.82
2023-03-29T23:36:10.189Z,82.59
2023-03-29T23:38:38.715Z,82.04
2023-03-29T23:41:08.554Z,81.62
2023-03-29T23:43:40.437Z,81.06
2023-03-29T23:46:15.996Z,81.24
2023-03-29T23:48:48.869Z,83.32
2023-03-29T23:51:18.853Z,84.19
2023-03-29T23:53:47.359Z,84.49
2023-03-29T23:56:14.702Z,84.68
2023-03-29T23:58:41.800Z,84.77
